Time;durP1;ratioP1;P1;durP2;ratioP2;P2;SDS_P1;SDS_P2;PMS_P1;PMS_P2;Temp;Humidity;BMP_temperature;BMP_pressure;BME280_temperature;BME280_humidity;BME280_pressure;Samples;Min_cycle;Max_cycle;Signal;HPM_P1;HPM_P2
2022/10/30 00:01:42;;;;;;;66.73;42.53;;;;;;;40.16;100.00;91390.21;1468052;87;21483;-80
2022/10/30 00:04:08;;;;;;;66.53;44.47;;;;;;;40.15;100.00;91426.42;1477877;86;21572;-81
2022/10/30 00:06:34;;;;;;;75.13;46.33;;;;;;;40.15;100.00;91419.34;1469747;87;21379;-79
2022/10/30 00:09:01;;;;;;;73.50;42.13;;;;;;;40.14;100.00;91503.88;1492508;86;21409;-80
2022/10/30 00:11:28;;;;;;;62.80;42.07;;;;;;;40.13;100.00;91503.88;1472363;87;22451;-79
2022/10/30 00:13:54;;;;;;;67.13;44.57;;;;;;;40.17;100.00;91348.63;1478053;87;21467;-77
2022/10/30 00:16:20;;;;;;;71.90;46.27;;;;;;;40.18;100.00;91298.47;1477198;87;21859;-78
2022/10/30 00:18:46;;;;;;;74.97;49.07;;;;;;;40.19;100.00;91252.58;1493201;87;21305;-79
2022/10/30 00:21:14;;;;;;;67.77;44.73;;;;;;;40.18;100.00;91301.31;1483509;87;21395;-78
2022/10/30 00:23:49;;;;;;;77.63;47.80;;;;;;;40.18;100.00;91271.78;1475386;87;21387;-78
2022/10/30 00:26:17;;;;;;;71.87;44.63;;;;;;;40.20;100.00;91151.45;1471186;87;21509;-78
2022/10/30 00:28:43;;;;;;;70.07;45.97;;;;;;;40.19;100.00;91222.67;1470467;87;21372;-76
2022/10/30 00:31:10;;;;;;;69.03;44.73;;;;;;;40.19;100.00;91209.86;1468882;87;21401;-78
2022/10/30 00:33:36;;;;;;;74.93;45.90;;;;;;;40.20;100.00;91138.23;1468088;88;21394;-79
2022/10/30 00:36:02;;;;;;;80.27;45.60;;;;;;;40.19;100.00;91144.03;1469878;87;21372;-78
2022/10/30 00:38:28;;;;;;;71.53;45.07;;;;;;;40.19;100.00;91152.58;1474738;87;23359;-78
2022/10/30 00:40:54;;;;;;;75.63;45.33;;;;;;;40.19;100.00;91136.91;1476470;87;21647;-78
2022/10/30 00:43:35;;;;;;;77.40;46.77;;;;;;;40.20;100.00;91078.20;1471111;88;21358;-76
2022/10/30 00:46:24;;;;;;;83.72;46.92;;;;;;;40.22;100.00;90989.40;1470419;87;21357;-79
2022/10/30 00:49:04;;;;;;;86.87;51.60;;;;;;;40.23;100.00;90952.02;1468533;87;21521;-79
2022/10/30 00:51:32;;;;;;;86.22;51.90;;;;;;;40.22;100.00;90980.86;1465242;87;21594;-77
2022/10/30 00:54:01;;;;;;;74.70;47.27;;;;;;;40.20;100.00;91054.63;1464775;87;21557;-79
2022/10/30 00:56:28;;;;;;;82.40;48.00;;;;;;;40.16;100.00;91258.07;1476860;87;21615;-79
2022/10/30 00:58:59;;;;;;;73.27;45.33;;;;;;;40.11;100.00;91515.84;1489681;86;22399;-78
2022/10/30 01:01:27;;;;;;;77.73;48.00;;;;;;;40.11;100.00;91548.71;1478182;87;22421;-79
2022/10/30 01:03:58;;;;;;;87.90;53.63;;;;;;;40.05;100.00;91829.41;1470099;88;22436;-79
2022/10/30 01:06:25;;;;;;;78.20;47.25;;;;;;;40.01;100.00;92038.01;1469120;88;21347;-78
2022/10/30 01:08:53;;;;;;;84.80;51.33;;;;;;;40.00;100.00;92100.81;1455014;87;21570;-78
2022/10/30 01:11:20;;;;;;;78.50;48.00;;;;;;;40.02;100.00;92025.62;1479870;86;21509;-78
2022/10/30 01:13:48;;;;;;;81.60;48.43;;;;;;;40.01;100.00;92067.98;1410043;87;22187;-79
2022/10/30 01:16:38;;;;;;;74.90;47.90;;;;;;;40.04;100.00;91919.93;1479065;87;21409;-78
2022/10/30 01:19:47;;;;;;;78.67;45.60;;;;;;;40.04;100.00;91925.62;1474778;87;23275;-77
2022/10/30 01:22:24;;;;;;;79.73;47.53;;;;;;;40.06;100.00;91787.54;1478925;87;21754;-79
2022/10/30 01:25:31;;;;;;;80.50;45.40;;;;;;;40.07;100.00;91743.69;1485758;87;22964;-79
2022/10/30 01:28:16;;;;;;;75.60;46.10;;;;;;;40.06;100.00;91775.11;1444080;89;21544;-78
2022/10/30 01:31:03;;;;;;;75.43;47.30;;;;;;;40.09;100.00;91641.70;1485788;87;22479;-79
2022/10/30 01:34:15;;;;;;;84.43;50.30;;;;;;;40.13;100.00;91425.17;1494981;86;22427;-78
2022/10/30 01:37:01;;;;;;;85.10;51.27;;;;;;;40.14;100.00;91362.24;1473328;88;21505;-79
2022/10/30 01:39:32;;;;;;;89.93;52.07;;;;;;;40.14;100.00;91326.98;1495198;87;21349;-78
2022/10/30 01:41:58;;;;;;;81.90;52.40;;;;;;;40.13;100.00;91367.11;1468490;87;21424;-79
2022/10/30 01:44:31;;;;;;;85.37;50.43;;;;;;;40.12;100.00;91405.80;1473127;87;21491;-79
2022/10/30 01:47:23;;;;;;;88.37;51.80;;;;;;;40.12;100.00;91418.63;1472837;88;21498;-78
2022/10/30 01:50:07;;;;;;;85.57;50.73;;;;;;;40.12;100.00;91441.54;1476336;88;21594;-79
2022/10/30 01:53:06;;;;;;;85.97;49.57;;;;;;;40.13;100.00;91396.67;1468180;88;21409;-79
2022/10/30 01:55:47;;;;;;;82.80;50.00;;;;;;;40.14;100.00;91342.30;1469507;88;22172;-77
2022/10/30 01:58:23;;;;;;;;;;;;;;;40.15;100.00;91269.74;1466831;88;22126;-78
2022/10/30 02:00:54;;;;;;;69.20;43.07;;;;;;;40.16;100.00;91264.92;1472083;88;20368;-79
2022/10/30 02:03:21;;;;;;;77.90;47.85;;;;;;;40.16;100.00;91240.98;1469384;88;21415;-77
2022/10/30 02:05:50;;;;;;;83.33;48.87;;;;;;;40.15;100.00;91298.23;1467692;88;21409;-78
2022/10/30 02:08:17;;;;;;;85.63;51.40;;;;;;;40.15;100.00;91286.83;1465507;87;21365;-78
2022/10/30 02:10:46;;;;;;;88.37;52.33;;;;;;;40.15;100.00;91293.62;1477626;87;21379;-79
2022/10/30 02:13:13;;;;;;;87.77;49.77;;;;;;;40.17;100.00;91199.08;1479186;87;21344;-76
2022/10/30 02:15:41;;;;;;;81.73;48.83;;;;;;;40.16;100.00;91223.89;1466285;88;22325;-78
2022/10/30 02:18:08;;;;;;;77.33;48.20;;;;;;;40.15;100.00;91272.59;1486674;87;22413;-77
2022/10/30 02:20:34;;;;;;;80.87;47.43;;;;;;;40.18;100.00;91149.25;1498025;87;21408;-78
2022/10/30 02:23:00;;;;;;;82.53;45.93;;;;;;;40.20;100.00;91057.48;1490243;87;22355;-79
2022/10/30 02:25:26;;;;;;;88.13;48.87;;;;;;;40.21;100.00;91003.99;1470851;87;21756;-77
2022/10/30 02:27:52;;;;;;;80.00;48.13;;;;;;;40.23;100.00;90917.86;1470911;88;21468;-78
2022/10/30 02:30:18;;;;;;;81.07;51.27;;;;;;;40.25;100.00;90797.31;1472525;88;21335;-79
2022/10/30 02:32:44;;;;;;;97.00;64.27;;;;;;;40.27;100.00;90686.20;1485077;87;22244;-81
2022/10/30 02:35:11;;;;;;;96.70;63.30;;;;;;;40.28;100.00;90653.72;1485716;86;21924;-81
2022/10/30 02:37:38;;;;;;;101.30;61.80;;;;;;;40.27;100.00;90666.29;1469673;88;21487;-77
2022/10/30 02:40:09;;;;;;;97.13;55.10;;;;;;;40.24;100.00;90834.72;1470846;87;21528;-78
2022/10/30 02:42:35;;;;;;;84.63;51.27;;;;;;;40.22;100.00;90926.59;1473192;88;21373;-78
2022/10/30 02:45:02;;;;;;;84.17;48.87;;;;;;;40.21;100.00;90995.45;1494456;88;21483;-79
2022/10/30 02:47:28;;;;;;;82.97;47.93;;;;;;;40.20;100.00;91026.95;1468163;88;21565;-78
2022/10/30 02:49:54;;;;;;;76.47;46.47;;;;;;;40.20;100.00;91026.95;1478720;87;22199;-79
2022/10/30 02:52:20;;;;;;;82.07;49.30;;;;;;;40.22;100.00;90958.08;1488971;86;21342;-80
2022/10/30 02:54:47;;;;;;;81.07;49.03;;;;;;;40.21;100.00;91005.02;1492506;87;21411;-78
2022/10/30 02:57:13;;;;;;;75.40;45.50;;;;;;;40.25;100.00;90794.67;1472068;88;21365;-79
2022/10/30 02:59:39;;;;;;;82.67;49.40;;;;;;;40.26;100.00;90698.03;1471529;88;22010;-79
2022/10/30 03:02:05;;;;;;;87.53;51.27;;;;;;;40.29;100.00;90548.70;1474138;88;22325;-79
2022/10/30 03:04:31;;;;;;;78.20;50.47;;;;;;;40.28;100.00;90597.55;1475319;87;21446;-81
2022/10/30 03:06:56;;;;;;;84.00;49.57;;;;;;;40.27;100.00;90643.52;1471208;86;21461;-80
2022/10/30 03:09:23;;;;;;;72.00;46.60;;;;;;;40.27;100.00;90633.55;1471838;88;21548;-80
2022/10/30 03:11:49;;;;;;;76.80;46.57;;;;;;;40.25;100.00;90788.97;1470801;87;21651;-78
2022/10/30 03:14:15;;;;;;;79.80;47.03;;;;;;;40.23;100.00;90893.66;1476078;87;21409;-78
2022/10/30 03:16:41;;;;;;;79.00;47.80;;;;;;;40.22;100.00;90903.80;1472326;87;22613;-80
2022/10/30 03:19:07;;;;;;;82.47;48.70;;;;;;;40.24;100.00;90794.87;1491267;86;21305;-78
2022/10/30 03:21:33;;;;;;;78.37;48.47;;;;;;;40.25;100.00;90720.46;1479592;87;21321;-78
2022/10/30 03:23:59;;;;;;;72.57;45.03;;;;;;;40.22;100.00;90834.05;1472376;88;21475;-77
2022/10/30 03:26:25;;;;;;;81.80;48.30;;;;;;;40.18;100.00;91066.34;1471730;88;22289;-79
2022/10/30 03:28:51;;;;;;;75.83;45.33;;;;;;;40.19;100.00;90998.96;1452237;87;21372;-79
2022/10/30 03:31:18;;;;;;;80.53;48.67;;;;;;;40.18;100.00;91086.28;1487482;87;21372;-79
2022/10/30 03:33:45;;;;;;;76.73;47.27;;;;;;;40.17;100.00;91143.86;1494871;86;21461;-79
2022/10/30 03:36:13;;;;;;;79.27;48.97;;;;;;;40.16;100.00;91223.89;1476342;87;21351;-78
2022/10/30 03:38:39;;;;;;;83.00;52.07;;;;;;;40.14;100.00;91342.30;1465048;88;21328;-79
2022/10/30 03:41:06;;;;;;;92.33;53.47;;;;;;;40.13;100.00;91390.98;1471041;87;21379;-79
2022/10/30 03:43:33;;;;;;;89.43;53.03;;;;;;;40.12;100.00;91455.78;1451730;88;21409;-78
2022/10/30 03:45:59;;;;;;;81.87;50.50;;;;;;;40.11;100.00;91504.37;1450417;88;22297;-78
2022/10/30 03:48:29;;;;;;;103.93;55.33;;;;;;;40.11;100.00;91515.77;1472094;88;21401;-80
2022/10/30 03:50:56;;;;;;;105.33;57.67;;;;;;;40.12;100.00;91464.21;1391465;88;22142;-75
2022/10/30 03:53:25;;;;;;;91.27;53.97;;;;;;;40.11;100.00;91544.33;1471480;87;22098;-80
2022/10/30 03:55:52;;;;;;;81.57;48.13;;;;;;;40.12;100.00;91498.52;1468754;88;21417;-79
2022/10/30 03:58:19;;;;;;;88.03;51.83;;;;;;;40.12;100.00;91532.83;1465730;88;21454;-79
2022/10/30 04:00:45;;;;;;;76.43;45.77;;;;;;;40.13;100.00;91415.54;1469793;88;22453;-80
2022/10/30 04:03:11;;;;;;;76.33;46.30;;;;;;;40.16;100.00;91253.80;1472722;88;21322;-79
2022/10/30 04:05:37;;;;;;;83.83;51.97;;;;;;;40.18;100.00;91160.64;1475700;87;21461;-79
2022/10/30 04:08:08;;;;;;;75.00;49.17;;;;;;;40.18;100.00;91163.48;1475129;88;22319;-77
2022/10/30 04:10:34;;;;;;;74.67;47.70;;;;;;;40.16;100.00;91279.11;1471718;87;21446;-78
2022/10/30 04:13:03;;;;;;;72.40;46.60;;;;;;;40.17;100.00;91203.73;1473820;88;21380;-78
2022/10/30 04:15:30;;;;;;;63.47;42.07;;;;;;;40.17;100.00;91178.04;1476772;88;21970;-78
2022/10/30 04:17:56;;;;;;;69.83;45.63;;;;;;;40.19;100.00;91104.48;1463972;88;21357;-79
2022/10/30 04:20:24;;;;;;;76.73;46.03;;;;;;;40.21;100.00;90944.02;1474128;88;21446;-79
2022/10/30 04:23:00;;;;;;;69.80;44.40;;;;;;;40.23;100.00;90843.64;1471417;88;21470;-81
2022/10/30 04:25:28;;;;;;;75.87;44.97;;;;;;;40.26;100.00;90703.17;1451417;87;21432;-80
2022/10/30 04:27:54;;;;;;;80.50;47.60;;;;;;;40.29;100.00;90508.86;1447532;87;21268;-78
2022/10/30 04:30:22;;;;;;;78.33;48.60;;;;;;;40.29;100.00;90500.33;1470701;88;21313;-76
2022/10/30 04:32:52;;;;;;;80.20;47.40;;;;;;;40.27;100.00;90631.39;1461820;88;21570;-79
2022/10/30 04:35:21;;;;;;;82.65;49.15;;;;;;;40.23;100.00;90863.77;1436464;90;21339;-79
2022/10/30 04:37:56;;;;;;;76.67;47.27;;;;;;;40.20;100.00;90984.23;1472514;87;22338;-79
2022/10/30 04:40:24;;;;;;;75.30;45.60;;;;;;;40.19;100.00;91041.67;1444335;87;21490;-79
2022/10/30 04:42:51;;;;;;;80.90;46.13;;;;;;;40.20;100.00;90990.56;1449918;88;21565;-77
2022/10/30 04:45:17;;;;;;;78.07;46.50;;;;;;;40.21;100.00;90927.11;1472340;88;21550;-77
2022/10/30 04:47:44;;;;;;;77.80;44.97;;;;;;;40.22;100.00;90841.17;1473405;88;22012;-78
2022/10/30 04:50:11;;;;;;;76.83;44.13;;;;;;;40.23;100.00;90812.52;1476485;87;21519;-79
2022/10/30 04:52:37;;;;;;;79.30;47.53;;;;;;;40.22;100.00;90826.94;1471722;88;21483;-80
2022/10/30 04:55:06;;;;;;;79.23;46.10;;;;;;;40.21;100.00;90850.08;1474145;87;21540;-78
2022/10/30 04:57:32;;;;;;;80.77;47.03;;;;;;;40.20;100.00;90913.11;1438251;87;21575;-80
2022/10/30 04:59:58;;;;;;;81.37;48.50;;;;;;;40.19;100.00;90994.70;1469759;88;22314;-80
2022/10/30 05:02:24;;;;;;;78.37;46.13;;;;;;;40.16;100.00;91164.09;1453029;90;21395;-80
2022/10/30 05:04:51;;;;;;;82.70;48.23;;;;;;;40.15;100.00;91232.77;1458187;87;21764;-79
2022/10/30 05:07:17;;;;;;;96.67;50.03;;;;;;;40.15;100.00;91256.59;1469221;87;22229;-76
2022/10/30 05:09:43;;;;;;;91.67;52.03;;;;;;;40.14;100.00;91279.63;1473805;88;21416;-78
2022/10/30 05:12:10;;;;;;;84.63;45.37;;;;;;;40.12;100.00;91350.25;1465235;88;22289;-80
2022/10/30 05:14:36;;;;;;;79.33;43.23;;;;;;;40.09;100.00;91507.61;1468822;88;21438;-80
2022/10/30 05:17:03;;;;;;;74.17;39.03;;;;;;;40.06;100.00;91658.24;1474651;88;21447;-77
2022/10/30 05:19:29;;;;;;;72.60;40.00;;;;;;;40.05;100.00;91732.55;1470540;88;21453;-79
2022/10/30 05:21:55;;;;;;;70.60;36.93;;;;;;;40.01;100.00;91989.55;1470862;88;22297;-78
2022/10/30 05:24:21;;;;;;;66.10;37.17;;;;;;;39.98;100.00;92128.47;1474398;87;21549;-79
2022/10/30 05:26:47;;;;;;;63.13;33.93;;;;;;;40.00;100.00;92046.63;1456382;87;22494;-78
2022/10/30 05:29:13;;;;;;;59.57;32.93;;;;;;;40.03;100.00;91926.69;1439080;91;21473;-80
2022/10/30 05:31:39;;;;;;;53.10;30.80;;;;;;;40.04;100.00;91874.30;1426078;90;21510;-79
2022/10/30 05:34:05;;;;;;;58.77;33.57;;;;;;;40.05;100.00;91802.41;1469051;87;21372;-78
2022/10/30 05:36:31;;;;;;;50.73;31.17;;;;;;;40.08;100.00;91673.23;1479987;86;21438;-78
2022/10/30 05:38:58;;;;;;;52.33;32.07;;;;;;;40.12;100.00;91470.03;1468921;87;21371;-78
2022/10/30 05:41:24;;;;;;;61.53;31.90;;;;;;;40.13;100.00;91410.91;1473135;88;22429;-77
2022/10/30 05:43:50;;;;;;;53.70;30.07;;;;;;;40.12;100.00;91461.48;1472351;88;21423;-79
2022/10/30 05:46:15;;;;;;;46.20;28.90;;;;;;;40.10;100.00;91554.98;1470911;88;21365;-79
2022/10/30 05:48:41;;;;;;;48.97;29.80;;;;;;;40.07;100.00;91692.30;1463720;87;21380;-79
2022/10/30 05:51:07;;;;;;;44.37;27.93;;;;;;;40.07;100.00;91732.28;1495498;87;22316;-79
2022/10/30 05:53:34;;;;;;;47.73;28.40;;;;;;;40.07;100.00;91719.45;1495370;86;21313;-78
2022/10/30 05:56:00;;;;;;;48.37;26.77;;;;;;;40.10;100.00;91558.88;1487514;87;21423;-77
2022/10/30 05:58:26;;;;;;;39.00;25.33;;;;;;;40.12;100.00;91410.13;1492733;87;21343;-78
2022/10/30 06:00:52;;;;;;;45.00;27.10;;;;;;;40.16;100.00;91222.14;1486430;87;21552;-78
2022/10/30 06:03:18;;;;;;;39.80;25.27;;;;;;;40.16;100.00;91146.98;1488835;86;21494;-79
2022/10/30 06:05:46;;;;;;;39.70;24.90;;;;;;;40.12;100.00;91350.36;1486954;86;21464;-79
2022/10/30 06:08:15;;;;;;;39.93;27.07;;;;;;;40.07;100.00;91618.19;1472573;86;22776;-79
2022/10/30 06:10:41;;;;;;;43.77;26.20;;;;;;;40.01;100.00;91975.30;1483436;87;22409;-79
2022/10/30 06:13:09;;;;;;;41.90;26.13;;;;;;;39.95;100.00;92273.00;1495982;87;21461;-80
2022/10/30 06:15:35;;;;;;;37.83;24.17;;;;;;;39.91;100.00;92466.84;1475125;87;21416;-79
2022/10/30 06:18:02;;;;;;;35.80;24.17;;;;;;;39.90;100.00;92520.99;1466266;88;21490;-78
2022/10/30 06:20:29;;;;;;;40.20;24.47;;;;;;;39.90;100.00;92597.95;1470471;87;21357;-78
2022/10/30 06:23:06;;;;;;;42.00;26.43;;;;;;;39.93;100.00;92401.34;1495360;87;21608;-80
2022/10/30 06:25:35;;;;;;;38.97;25.37;;;;;;;39.97;100.00;92195.05;1483607;86;21621;-77
2022/10/30 06:28:01;;;;;;;38.30;24.37;;;;;;;39.98;100.00;92151.30;1423201;89;22297;-77
2022/10/30 06:30:28;;;;;;;37.57;23.20;;;;;;;40.00;100.00;92071.36;1486293;87;21460;-79
2022/10/30 06:33:03;;;;;;;40.17;23.73;;;;;;;39.98;100.00;92179.81;1488430;87;21320;-80
2022/10/30 06:35:30;;;;;;;49.37;30.27;;;;;;;39.97;100.00;92223.56;1492050;86;21555;-80
2022/10/30 06:37:59;;;;;;;43.13;26.53;;;;;;;39.97;100.00;92234.03;1493312;86;21505;-79
2022/10/30 06:40:26;;;;;;;42.80;25.80;;;;;;;39.99;100.00;92072.34;1448877;88;21349;-80
2022/10/30 06:42:53;;;;;;;44.17;25.80;;;;;;;40.03;100.00;91906.72;1454523;88;21402;-80
2022/10/30 06:45:22;;;;;;;38.90;24.83;;;;;;;40.06;100.00;91724.83;1475414;88;21431;-80
2022/10/30 06:47:48;;;;;;;39.13;24.23;;;;;;;40.07;100.00;91655.25;1477338;88;21850;-78
2022/10/30 06:50:19;;;;;;;36.37;24.37;;;;;;;40.09;100.00;91560.87;1468785;87;21364;-80
2022/10/30 06:52:45;;;;;;;34.67;24.95;;;;;;;40.13;100.00;91352.87;1477417;87;21347;-80
2022/10/30 06:55:12;;;;;;;38.23;25.73;;;;;;;40.16;100.00;91215.34;1465526;87;22443;-79
2022/10/30 06:57:38;;;;;;;43.83;27.20;;;;;;;40.20;100.00;91009.92;1490748;87;21312;-76
2022/10/30 07:00:06;;;;;;;57.90;33.80;;;;;;;40.20;100.00;90995.62;1489266;87;21409;-80
2022/10/30 07:02:33;;;;;;;46.27;26.53;;;;;;;40.19;100.00;91041.52;1395792;87;21395;-80
2022/10/30 07:04:59;;;;;;;41.00;25.47;;;;;;;40.20;100.00;90984.23;1468494;88;21402;-80
2022/10/30 07:07:25;;;;;;;36.80;23.97;;;;;;;40.19;100.00;91024.59;1480732;87;21520;-80
2022/10/30 07:09:51;;;;;;;34.77;23.73;;;;;;;40.19;100.00;91024.44;1473998;87;21377;-80
2022/10/30 07:12:17;;;;;;;33.00;22.43;;;;;;;40.19;100.00;91059.78;1464105;89;22315;-78
2022/10/30 07:14:43;;;;;;;34.30;23.97;;;;;;;40.20;100.00;91004.80;1467230;89;21331;-80
2022/10/30 07:17:09;;;;;;;32.63;22.50;;;;;;;40.20;100.00;90998.47;1453141;87;21414;-79
2022/10/30 07:19:36;;;;;;;33.47;21.80;;;;;;;40.25;100.00;90731.84;1472428;88;21380;-78
2022/10/30 07:22:02;;;;;;;31.77;22.63;;;;;;;40.32;100.00;90365.16;1469806;88;21535;-76
2022/10/30 07:24:28;;;;;;;40.17;25.67;;;;;;;40.37;100.00;90091.02;1465062;88;21328;-87
2022/10/30 07:26:55;;;;;;;39.50;27.37;;;;;;;40.41;100.00;89904.75;1470470;88;21461;-89
2022/10/30 07:29:22;;;;;;;37.57;24.03;;;;;;;40.42;100.00;89876.66;1397233;88;21387;-86
2022/10/30 07:31:48;;;;;;;34.33;23.40;;;;;;;40.44;100.00;89760.34;1462874;88;22264;-90
2022/10/30 07:34:15;;;;;;;30.50;20.67;;;;;;;40.46;100.00;89704.84;1432579;90;21317;-88
2022/10/30 07:36:41;;;;;;;36.73;24.23;;;;;;;40.48;100.00;89566.76;1444433;91;21384;-86
2022/10/30 07:39:08;;;;;;;49.97;26.07;;;;;;;40.51;100.00;89420.55;1456382;87;22021;-88
2022/10/30 07:41:34;;;;;;;61.23;31.43;;;;;;;40.53;100.00;89341.71;1441689;88;21483;-87
2022/10/30 07:44:03;;;;;;;58.17;31.93;;;;;;;40.56;100.00;89169.39;1467629;88;22327;-89
2022/10/30 07:46:29;;;;;;;44.43;28.20;;;;;;;40.57;100.00;89127.83;1467657;88;21543;-91
2022/10/30 07:48:55;;;;;;;36.30;23.43;;;;;;;40.59;100.00;89026.72;1456354;87;21517;-87
2022/10/30 07:51:21;;;;;;;42.10;25.50;;;;;;;40.62;100.00;88885.88;1491523;87;22452;-84
2022/10/30 07:53:47;;;;;;;34.33;22.57;;;;;;;40.59;100.00;89038.23;1482909;87;21491;-89
2022/10/30 07:56:13;;;;;;;54.43;28.67;;;;;;;40.57;100.00;89097.14;1472604;88;21372;-86
2022/10/30 07:58:39;;;;;;;63.43;31.43;;;;;;;40.61;100.00;88934.08;1472738;88;21394;-85
2022/10/30 08:01:05;;;;;;;56.30;28.63;;;;;;;40.62;100.00;88854.64;1478485;87;22253;-88
2022/10/30 08:03:31;;;;;;;43.07;26.23;;;;;;;40.71;100.00;88395.24;1461458;88;22330;-87
2022/10/30 08:05:57;;;;;;;59.20;28.87;;;;;;;40.74;100.00;88227.23;1481711;87;21380;-88
2022/10/30 08:08:23;;;;;;;46.17;26.13;;;;;;;40.74;100.00;88241.96;1479008;88;21372;-89
2022/10/30 08:10:49;;;;;;;51.93;24.93;;;;;;;40.73;100.00;88262.36;1469023;88;21505;-87
2022/10/30 08:13:17;;;;;;;70.03;31.97;;;;;;;40.73;100.00;88256.69;1470708;88;21314;-90
2022/10/30 08:15:43;;;;;;;48.87;26.97;;;;;;;40.76;100.00;88126.33;1475296;87;22355;-87
2022/10/30 08:18:09;;;;;;;35.80;24.97;;;;;;;40.76;100.00;88091.75;1429663;90;21443;-86
2022/10/30 08:20:35;;;;;;;37.00;22.53;;;;;;;40.79;100.00;87934.27;1434446;90;21486;-88
2022/10/30 08:23:01;;;;;;;42.10;24.63;;;;;;;40.82;100.00;87741.18;1463618;88;21431;-88
2022/10/30 08:25:29;;;;;;;65.43;32.83;;;;;;;40.83;100.00;87687.98;1469178;87;21462;-87
2022/10/30 08:28:02;;;;;;;47.20;28.00;;;;;;;40.84;100.00;87625.39;1461801;88;22237;-85
2022/10/30 08:30:33;;;;;;;50.93;29.17;;;;;;;40.83;100.00;87670.98;1492543;87;21806;-84
2022/10/30 08:33:02;;;;;;;57.95;28.85;;;;;;;40.85;100.00;87550.48;1479084;87;22650;-85
2022/10/30 08:35:28;;;;;;;54.80;28.80;;;;;;;40.87;100.00;87425.52;1469869;87;21328;-86
2022/10/30 08:37:56;;;;;;;36.57;22.70;;;;;;;40.89;100.00;87349.94;1470203;88;21472;-85
2022/10/30 08:40:23;;;;;;;45.23;24.93;;;;;;;40.88;100.00;87392.34;1475370;88;21557;-87
2022/10/30 08:42:53;;;;;;;48.93;26.20;;;;;;;40.90;100.00;87313.67;1468377;88;21520;-88
2022/10/30 08:45:20;;;;;;;35.70;22.10;;;;;;;40.93;100.00;87162.00;1460250;87;21513;-88
2022/10/30 08:47:47;;;;;;;43.87;26.87;;;;;;;40.95;100.00;87059.91;1446935;89;21402;-87
2022/10/30 08:50:14;;;;;;;36.87;24.17;;;;;;;40.96;100.00;86981.38;1449185;90;21403;-87
2022/10/30 08:52:39;;;;;;;40.40;25.53;;;;;;;40.96;100.00;87009.42;1429963;88;21413;-86
2022/10/30 08:55:07;;;;;;;36.57;25.40;;;;;;;40.95;100.00;87021.44;1469999;88;21365;-87
2022/10/30 08:57:36;;;;;;;42.47;24.50;;;;;;;40.97;100.00;86941.05;1472328;88;22443;-87
2022/10/30 09:00:05;;;;;;;46.60;26.03;;;;;;;41.00;100.00;86787.88;1449394;88;21378;-88
2022/10/30 09:02:31;;;;;;;31.10;20.67;;;;;;;41.04;100.00;86580.30;1410682;88;22458;-88
2022/10/30 09:05:00;;;;;;;29.80;19.97;;;;;;;41.05;100.00;86526.89;1479493;88;21238;-88
2022/10/30 09:07:31;;;;;;;35.93;23.57;;;;;;;41.07;100.00;86427.63;1528618;88;21437;-87
2022/10/30 09:09:57;;;;;;;32.57;21.53;;;;;;;41.07;100.00;86438.94;1409308;88;21431;-87
2022/10/30 09:12:23;;;;;;;30.17;21.80;;;;;;;41.08;100.00;86383.64;1466597;88;21402;-87
2022/10/30 09:14:49;;;;;;;28.77;21.40;;;;;;;41.06;100.00;86482.91;1465794;88;21453;-88
2022/10/30 09:17:15;;;;;;;40.43;25.10;;;;;;;41.02;100.00;86696.75;1459787;88;21453;-87
2022/10/30 09:19:41;;;;;;;33.97;22.93;;;;;;;41.02;100.00;86673.84;1468744;88;21358;-86
2022/10/30 09:22:07;;;;;;;32.10;24.10;;;;;;;41.02;100.00;86687.99;1453158;88;21372;-89
2022/10/30 09:24:33;;;;;;;28.00;20.50;;;;;;;41.07;100.00;86454.83;1456845;87;22244;-88
2022/10/30 09:26:59;;;;;;;29.30;19.73;;;;;;;41.11;100.00;86222.37;1491052;87;21358;-88
2022/10/30 09:29:26;;;;;;;23.77;17.03;;;;;;;41.14;100.00;86035.73;1490693;87;22407;-89
2022/10/30 09:31:52;;;;;;;29.23;19.67;;;;;;;41.18;100.00;85816.19;1489370;87;21840;-92
2022/10/30 09:34:18;;;;;;;27.73;20.70;;;;;;;41.21;100.00;85693.19;1468200;87;21332;-88
2022/10/30 09:36:46;;;;;;;33.00;21.83;;;;;;;41.22;100.00;85604.83;1481385;87;21336;-88
2022/10/30 09:39:12;;;;;;;32.27;21.13;;;;;;;41.24;100.00;85516.44;1466328;87;21336;-84
2022/10/30 09:42:20;;;;;;;26.80;20.07;;;;;;;41.27;100.00;85297.39;1462697;87;21450;-86
2022/10/30 09:44:52;;;;;;;30.13;17.83;;;;;;;41.27;100.00;85280.45;1460555;88;21502;-88
2022/10/30 09:47:41;;;;;;;26.23;16.53;;;;;;;41.30;100.00;85136.48;1457979;87;21485;-92
2022/10/30 09:50:28;;;;;;;31.60;18.40;;;;;;;41.34;100.00;84875.78;1468730;88;22422;-92
2022/10/30 09:53:32;;;;;;;24.90;16.80;;;;;;;41.30;100.00;85132.31;1472224;88;22333;-88
2022/10/30 09:56:30;;;;;;;26.30;19.17;;;;;;;41.24;100.00;85479.72;1475055;86;21372;-92
2022/10/30 09:59:24;;;;;;;26.90;18.83;;;;;;;41.22;100.00;85566.16;1469629;87;22766;-89
2022/10/30 10:04:47;;;;;;;29.53;21.03;;;;;;;41.30;100.00;85136.48;1487322;85;23200;-87
2022/10/30 10:07:40;;;;;;;28.87;18.23;;;;;;;41.09;100.00;86221.06;1473672;87;21436;-91
2022/10/30 10:10:18;;;;;;;26.57;16.20;;;;;;;41.11;100.00;86168.65;1476746;87;21401;-89
2022/10/30 10:12:49;;;;;;;23.33;17.53;;;;;;;41.17;100.00;85859.14;1475065;87;22445;-89
2022/10/30 10:15:23;;;;;;;27.53;18.23;;;;;;;41.24;100.00;85428.97;1470731;87;21605;-86
2022/10/30 10:17:50;;;;;;;22.43;16.53;;;;;;;41.27;100.00;85257.86;1470792;86;21470;-90
2022/10/30 10:20:40;;;;;;;34.30;22.90;;;;;;;41.30;100.00;85150.61;1466872;86;21430;-88
2022/10/30 10:23:17;;;;;;;24.57;17.97;;;;;;;41.28;100.00;85268.58;1469417;88;21453;-89
2022/10/30 10:25:53;;;;;;;24.13;17.63;;;;;;;41.25;100.00;85385.75;1471769;88;21445;-91
2022/10/30 10:28:57;;;;;;;24.03;18.00;;;;;;;41.21;100.00;85601.91;1435964;86;21590;-92
2022/10/30 10:31:56;;;;;;;23.27;16.70;;;;;;;41.21;100.00;85608.42;1473055;88;21404;-93
2022/10/30 10:34:34;;;;;;;21.87;16.53;;;;;;;41.21;100.00;85614.07;1485312;86;21384;-87
2022/10/30 10:37:22;;;;;;;26.63;17.73;;;;;;;41.22;100.00;85552.02;1464959;88;21379;-86
2022/10/30 10:40:00;;;;;;;25.57;19.20;;;;;;;41.23;100.00;85459.87;1478582;87;21354;-83
2022/10/30 10:42:40;;;;;;;33.23;22.17;;;;;;;41.23;100.00;85434.45;1464841;86;21345;-86
2022/10/30 10:45:29;;;;;;;30.65;17.25;;;;;;;41.18;100.00;85652.29;1467847;87;21385;-91
2022/10/30 10:48:39;;;;;;;19.80;14.60;;;;;;;41.14;100.00;85923.48;1465219;87;21485;-88
2022/10/30 10:51:16;;;;;;;23.32;17.85;;;;;;;41.09;100.00;86150.36;1473001;87;21338;-90
2022/10/30 10:53:56;;;;;;;22.93;16.83;;;;;;;41.09;100.00;86191.62;1472286;87;21525;-90
2022/10/30 10:56:30;;;;;;;24.77;17.00;;;;;;;41.10;100.00;86162.74;1474733;86;21610;-88
2022/10/30 10:59:02;;;;;;;22.40;15.93;;;;;;;41.13;100.00;86041.02;1463228;86;21412;-91
2022/10/30 11:01:36;;;;;;;25.27;14.70;;;;;;;41.18;100.00;85769.00;1471943;86;21511;-87
2022/10/30 11:04:11;;;;;;;19.87;14.23;;;;;;;41.23;100.00;85496.59;1457056;88;21511;-88
2022/10/30 11:06:45;;;;;;;19.50;13.70;;;;;;;41.25;100.00;85349.03;1458958;88;21451;-85
2022/10/30 11:09:20;;;;;;;19.87;14.87;;;;;;;41.26;100.00;85290.73;1461736;87;22437;-89
2022/10/30 11:11:48;;;;;;;17.50;13.00;;;;;;;41.27;100.00;85232.45;1463797;88;22329;-88
2022/10/30 11:14:21;;;;;;;16.50;12.00;;;;;;;41.28;100.00;85182.59;1464218;86;21493;-90
2022/10/30 11:17:05;;;;;;;17.37;11.23;;;;;;;41.32;100.00;84988.80;1462089;86;21594;-87
2022/10/30 11:19:33;;;;;;;18.90;12.67;;;;;;;41.34;100.00;84894.66;1437469;90;21487;-91
2022/10/30 11:22:01;;;;;;;18.53;13.63;;;;;;;41.33;100.00;84903.11;1458621;88;21537;-85
2022/10/30 11:24:32;;;;;;;21.30;13.33;;;;;;;41.36;100.00;84770.31;1458568;88;21533;-85
2022/10/30 11:27:30;;;;;;;20.85;13.32;;;;;;;41.38;100.00;84628.55;1460656;88;21430;-89